sensor_id;sensor_type;location;lat;lon;timestamp;P1;durP1;ratioP1;P2;durP2;ratioP2
29934;SDS011;19905;53.370;-6.314;2023-06-14T00:02:00;15.82;;;10.00;;
29934;SDS011;19905;53.370;-6.314;2023-06-14T00:04:30;19.50;;;10.40;;
29934;SDS011;19905;53.370;-6.314;2023-06-14T00:06:59;18.13;;;10.75;;
29934;SDS011;19905;53.370;-6.314;2023-06-14T00:09:27;14.65;;;9.70;;
29934;SDS011;19905;53.370;-6.314;2023-06-14T00:11:56;16.85;;;9.95;;
29934;SDS011;19905;53.370;-6.314;2023-06-14T00:14:26;17.02;;;10.00;;
29934;SDS011;19905;53.370;-6.314;2023-06-14T00:16:54;13.68;;;11.07;;
29934;SDS011;19905;53.370;-6.314;2023-06-14T00:19:25;17.20;;;11.10;;
29934;SDS011;19905;53.370;-6.314;2023-06-14T00:21:56;19.83;;;10.70;;
29934;SDS011;19905;53.370;-6.314;2023-06-14T00:24:25;17.90;;;10.20;;
29934;SDS011;19905;53.370;-6.314;2023-06-14T00:26:53;17.75;;;10.38;;
29934;SDS011;19905;53.370;-6.314;2023-06-14T00:29:22;17.42;;;10.77;;
29934;SDS011;19905;53.370;-6.314;2023-06-14T00:31:52;15.10;;;10.27;;
29934;SDS011;19905;53.370;-6.314;2023-06-14T00:34:21;18.35;;;10.80;;
29934;SDS011;19905;53.370;-6.314;2023-06-14T00:36:49;16.13;;;10.40;;
29934;SDS011;19905;53.370;-6.314;2023-06-14T00:39:20;18.27;;;10.75;;
29934;SDS011;19905;53.370;-6.314;2023-06-14T00:41:48;20.35;;;10.55;;
29934;SDS011;19905;53.370;-6.314;2023-06-14T00:44:17;18.92;;;10.35;;
29934;SDS011;19905;53.370;-6.314;2023-06-14T00:46:46;15.20;;;10.75;;
29934;SDS011;19905;53.370;-6.314;2023-06-14T00:49:15;17.88;;;10.93;;
29934;SDS011;19905;53.370;-6.314;2023-06-14T00:51:45;17.48;;;11.50;;
29934;SDS011;19905;53.370;-6.314;2023-06-14T00:54:14;19.77;;;11.05;;
29934;SDS011;19905;53.370;-6.314;2023-06-14T00:56:45;16.92;;;10.77;;
29934;SDS011;19905;53.370;-6.314;2023-06-14T00:59:13;16.77;;;11.00;;
29934;SDS011;19905;53.370;-6.314;2023-06-14T01:01:42;16.17;;;11.23;;
29934;SDS011;19905;53.370;-6.314;2023-06-14T01:04:12;21.08;;;11.70;;
29934;SDS011;19905;53.370;-6.314;2023-06-14T01:06:42;18.80;;;11.45;;
29934;SDS011;19905;53.370;-6.314;2023-06-14T01:09:21;19.75;;;11.68;;
29934;SDS011;19905;53.370;-6.314;2023-06-14T01:11:59;21.83;;;12.57;;
29934;SDS011;19905;53.370;-6.314;2023-06-14T01:14:33;19.70;;;11.20;;
29934;SDS011;19905;53.370;-6.314;2023-06-14T01:17:03;18.63;;;11.48;;
29934;SDS011;19905;53.370;-6.314;2023-06-14T01:19:35;18.35;;;11.40;;
29934;SDS011;19905;53.370;-6.314;2023-06-14T01:22:04;15.30;;;10.85;;
29934;SDS011;19905;53.370;-6.314;2023-06-14T01:24:34;18.63;;;11.70;;
29934;SDS011;19905;53.370;-6.314;2023-06-14T01:27:03;19.55;;;12.20;;
29934;SDS011;19905;53.370;-6.314;2023-06-14T01:29:33;18.83;;;12.32;;
29934;SDS011;19905;53.370;-6.314;2023-06-14T01:32:03;19.85;;;12.75;;
29934;SDS011;19905;53.370;-6.314;2023-06-14T01:34:33;19.33;;;12.00;;
29934;SDS011;19905;53.370;-6.314;2023-06-14T01:37:02;21.10;;;12.80;;
29934;SDS011;19905;53.370;-6.314;2023-06-14T01:39:31;22.52;;;11.85;;
29934;SDS011;19905;53.370;-6.314;2023-06-14T01:42:02;19.70;;;12.30;;
29934;SDS011;19905;53.370;-6.314;2023-06-14T01:44:34;17.77;;;12.57;;
29934;SDS011;19905;53.370;-6.314;2023-06-14T01:47:04;18.00;;;12.23;;
29934;SDS011;19905;53.370;-6.314;2023-06-14T01:49:36;17.35;;;12.07;;
29934;SDS011;19905;53.370;-6.314;2023-06-14T01:52:07;21.17;;;12.23;;
29934;SDS011;19905;53.370;-6.314;2023-06-14T01:54:38;18.70;;;11.90;;
29934;SDS011;19905;53.370;-6.314;2023-06-14T01:57:09;16.80;;;11.23;;
29934;SDS011;19905;53.370;-6.314;2023-06-14T01:59:38;16.30;;;11.93;;
29934;SDS011;19905;53.370;-6.314;2023-06-14T02:02:06;20.55;;;12.07;;
29934;SDS011;19905;53.370;-6.314;2023-06-14T02:04:35;19.00;;;11.77;;
29934;SDS011;19905;53.370;-6.314;2023-06-14T02:07:04;17.92;;;11.68;;
29934;SDS011;19905;53.370;-6.314;2023-06-14T02:09:34;16.98;;;11.13;;
29934;SDS011;19905;53.370;-6.314;2023-06-14T02:12:06;16.88;;;11.25;;
29934;SDS011;19905;53.370;-6.314;2023-06-14T02:14:35;18.60;;;10.85;;
29934;SDS011;19905;53.370;-6.314;2023-06-14T02:17:05;16.50;;;11.02;;
29934;SDS011;19905;53.370;-6.314;2023-06-14T02:19:34;16.85;;;10.75;;
29934;SDS011;19905;53.370;-6.314;2023-06-14T02:22:03;16.73;;;10.95;;
29934;SDS011;19905;53.370;-6.314;2023-06-14T02:24:33;15.85;;;11.27;;
29934;SDS011;19905;53.370;-6.314;2023-06-14T02:27:07;20.02;;;10.93;;
29934;SDS011;19905;53.370;-6.314;2023-06-14T02:29:38;17.88;;;11.07;;
29934;SDS011;19905;53.370;-6.314;2023-06-14T02:32:06;19.88;;;11.02;;
29934;SDS011;19905;53.370;-6.314;2023-06-14T02:34:36;18.85;;;11.70;;
29934;SDS011;19905;53.370;-6.314;2023-06-14T02:37:08;18.73;;;11.57;;
29934;SDS011;19905;53.370;-6.314;2023-06-14T02:39:38;14.93;;;11.18;;
29934;SDS011;19905;53.370;-6.314;2023-06-14T02:42:08;15.38;;;11.50;;
29934;SDS011;19905;53.370;-6.314;2023-06-14T02:44:38;16.20;;;11.02;;
29934;SDS011;19905;53.370;-6.314;2023-06-14T02:47:07;18.65;;;11.48;;
29934;SDS011;19905;53.370;-6.314;2023-06-14T02:49:35;17.95;;;11.30;;
29934;SDS011;19905;53.370;-6.314;2023-06-14T02:52:05;16.65;;;11.23;;
29934;SDS011;19905;53.370;-6.314;2023-06-14T02:54:36;18.95;;;10.77;;
29934;SDS011;19905;53.370;-6.314;2023-06-14T02:57:05;14.63;;;10.80;;
29934;SDS011;19905;53.370;-6.314;2023-06-14T02:59:36;19.42;;;10.65;;
29934;SDS011;19905;53.370;-6.314;2023-06-14T03:02:05;14.20;;;9.68;;
29934;SDS011;19905;53.370;-6.314;2023-06-14T03:04:34;14.63;;;8.95;;
29934;SDS011;19905;53.370;-6.314;2023-06-14T03:07:04;15.40;;;9.43;;
29934;SDS011;19905;53.370;-6.314;2023-06-14T03:09:35;13.45;;;8.55;;
29934;SDS011;19905;53.370;-6.314;2023-06-14T03:12:05;16.48;;;8.82;;
29934;SDS011;19905;53.370;-6.314;2023-06-14T03:14:42;13.90;;;8.65;;
29934;SDS011;19905;53.370;-6.314;2023-06-14T03:17:12;13.85;;;8.75;;
29934;SDS011;19905;53.370;-6.314;2023-06-14T03:19:42;16.00;;;8.43;;
29934;SDS011;19905;53.370;-6.314;2023-06-14T03:22:11;11.88;;;8.15;;
29934;SDS011;19905;53.370;-6.314;2023-06-14T03:24:39;12.20;;;8.02;;
29934;SDS011;19905;53.370;-6.314;2023-06-14T03:27:09;14.52;;;7.95;;
29934;SDS011;19905;53.370;-6.314;2023-06-14T03:29:40;13.85;;;8.02;;
29934;SDS011;19905;53.370;-6.314;2023-06-14T03:32:09;10.63;;;7.50;;
29934;SDS011;19905;53.370;-6.314;2023-06-14T03:34:38;11.40;;;7.47;;
29934;SDS011;19905;53.370;-6.314;2023-06-14T03:37:08;13.13;;;8.38;;
29934;SDS011;19905;53.370;-6.314;2023-06-14T03:39:37;18.38;;;8.52;;
29934;SDS011;19905;53.370;-6.314;2023-06-14T03:42:13;14.10;;;8.48;;
29934;SDS011;19905;53.370;-6.314;2023-06-14T03:44:43;14.98;;;7.93;;
29934;SDS011;19905;53.370;-6.314;2023-06-14T03:47:12;13.15;;;8.35;;
29934;SDS011;19905;53.370;-6.314;2023-06-14T03:49:42;13.27;;;9.05;;
29934;SDS011;19905;53.370;-6.314;2023-06-14T03:52:12;14.65;;;8.00;;
29934;SDS011;19905;53.370;-6.314;2023-06-14T03:54:43;10.40;;;7.65;;
29934;SDS011;19905;53.370;-6.314;2023-06-14T03:57:33;11.57;;;8.13;;
29934;SDS011;19905;53.370;-6.314;2023-06-14T04:00:03;15.18;;;8.13;;
29934;SDS011;19905;53.370;-6.314;2023-06-14T04:02:33;12.38;;;7.90;;
29934;SDS011;19905;53.370;-6.314;2023-06-14T04:05:03;16.20;;;8.35;;
29934;SDS011;19905;53.370;-6.314;2023-06-14T04:07:36;13.05;;;8.23;;
29934;SDS011;19905;53.370;-6.314;2023-06-14T04:10:07;16.70;;;9.02;;
29934;SDS011;19905;53.370;-6.314;2023-06-14T04:12:36;13.75;;;8.32;;
29934;SDS011;19905;53.370;-6.314;2023-06-14T04:15:10;14.43;;;8.80;;
29934;SDS011;19905;53.370;-6.314;2023-06-14T04:17:47;14.05;;;8.75;;
29934;SDS011;19905;53.370;-6.314;2023-06-14T04:20:16;11.77;;;9.00;;
29934;SDS011;19905;53.370;-6.314;2023-06-14T04:22:44;12.20;;;8.70;;
29934;SDS011;19905;53.370;-6.314;2023-06-14T04:25:13;14.60;;;8.68;;
29934;SDS011;19905;53.370;-6.314;2023-06-14T04:27:45;14.25;;;9.05;;
29934;SDS011;19905;53.370;-6.314;2023-06-14T04:30:15;16.33;;;8.60;;
29934;SDS011;19905;53.370;-6.314;2023-06-14T04:32:44;15.63;;;8.52;;
29934;SDS011;19905;53.370;-6.314;2023-06-14T04:35:13;15.52;;;8.32;;
29934;SDS011;19905;53.370;-6.314;2023-06-14T04:37:43;15.63;;;8.73;;
29934;SDS011;19905;53.370;-6.314;2023-06-14T04:40:12;14.55;;;7.95;;
29934;SDS011;19905;53.370;-6.314;2023-06-14T04:42:40;14.10;;;8.27;;
29934;SDS011;19905;53.370;-6.314;2023-06-14T04:45:11;14.48;;;8.20;;
29934;SDS011;19905;53.370;-6.314;2023-06-14T04:47:49;10.85;;;8.30;;
29934;SDS011;19905;53.370;-6.314;2023-06-14T04:50:25;19.48;;;8.85;;
29934;SDS011;19905;53.370;-6.314;2023-06-14T04:52:56;15.20;;;8.52;;
29934;SDS011;19905;53.370;-6.314;2023-06-14T04:55:26;15.45;;;8.73;;
29934;SDS011;19905;53.370;-6.314;2023-06-14T04:57:55;10.48;;;8.23;;
29934;SDS011;19905;53.370;-6.314;2023-06-14T05:00:24;12.55;;;8.40;;
29934;SDS011;19905;53.370;-6.314;2023-06-14T05:02:54;14.88;;;9.20;;
29934;SDS011;19905;53.370;-6.314;2023-06-14T05:05:24;14.75;;;8.48;;
29934;SDS011;19905;53.370;-6.314;2023-06-14T05:07:52;16.17;;;9.13;;
29934;SDS011;19905;53.370;-6.314;2023-06-14T05:10:21;14.45;;;8.48;;
29934;SDS011;19905;53.370;-6.314;2023-06-14T05:12:50;15.35;;;8.55;;
29934;SDS011;19905;53.370;-6.314;2023-06-14T05:15:21;12.13;;;8.35;;
29934;SDS011;19905;53.370;-6.314;2023-06-14T05:17:54;12.70;;;8.00;;
29934;SDS011;19905;53.370;-6.314;2023-06-14T05:20:23;15.68;;;8.30;;
29934;SDS011;19905;53.370;-6.314;2023-06-14T05:22:54;15.50;;;8.45;;
29934;SDS011;19905;53.370;-6.314;2023-06-14T05:25:25;16.02;;;8.32;;
29934;SDS011;19905;53.370;-6.314;2023-06-14T05:27:55;14.05;;;7.93;;
29934;SDS011;19905;53.370;-6.314;2023-06-14T05:30:23;13.38;;;8.07;;
29934;SDS011;19905;53.370;-6.314;2023-06-14T05:32:52;14.73;;;7.43;;
29934;SDS011;19905;53.370;-6.314;2023-06-14T05:35:23;13.52;;;7.22;;
29934;SDS011;19905;53.370;-6.314;2023-06-14T05:37:53;12.98;;;7.07;;
29934;SDS011;19905;53.370;-6.314;2023-06-14T05:40:22;15.50;;;6.80;;
29934;SDS011;19905;53.370;-6.314;2023-06-14T05:42:50;12.85;;;6.75;;
29934;SDS011;19905;53.370;-6.314;2023-06-14T05:45:20;9.75;;;6.25;;
29934;SDS011;19905;53.370;-6.314;2023-06-14T05:47:49;15.43;;;6.85;;
29934;SDS011;19905;53.370;-6.314;2023-06-14T05:50:19;16.70;;;8.00;;
29934;SDS011;19905;53.370;-6.314;2023-06-14T05:52:49;15.27;;;8.20;;
29934;SDS011;19905;53.370;-6.314;2023-06-14T05:55:18;11.25;;;7.68;;
29934;SDS011;19905;53.370;-6.314;2023-06-14T05:57:48;14.13;;;7.45;;
29934;SDS011;19905;53.370;-6.314;2023-06-14T06:00:17;15.45;;;7.53;;
29934;SDS011;19905;53.370;-6.314;2023-06-14T06:02:46;14.32;;;7.30;;
29934;SDS011;19905;53.370;-6.314;2023-06-14T06:05:16;12.07;;;7.45;;
29934;SDS011;19905;53.370;-6.314;2023-06-14T06:07:46;13.98;;;7.20;;
29934;SDS011;19905;53.370;-6.314;2023-06-14T06:10:16;11.55;;;7.03;;
29934;SDS011;19905;53.370;-6.314;2023-06-14T06:12:46;13.20;;;6.85;;
29934;SDS011;19905;53.370;-6.314;2023-06-14T06:15:16;12.75;;;6.90;;
29934;SDS011;19905;53.370;-6.314;2023-06-14T06:17:46;9.25;;;6.70;;
29934;SDS011;19905;53.370;-6.314;2023-06-14T06:20:22;10.45;;;6.70;;
29934;SDS011;19905;53.370;-6.314;2023-06-14T06:22:55;12.10;;;6.18;;
29934;SDS011;19905;53.370;-6.314;2023-06-14T06:25:27;10.60;;;6.35;;
29934;SDS011;19905;53.370;-6.314;2023-06-14T06:27:58;14.35;;;5.72;;
29934;SDS011;19905;53.370;-6.314;2023-06-14T06:30:30;11.75;;;5.90;;
29934;SDS011;19905;53.370;-6.314;2023-06-14T06:32:59;10.05;;;6.30;;
29934;SDS011;19905;53.370;-6.314;2023-06-14T06:35:28;10.70;;;5.65;;
29934;SDS011;19905;53.370;-6.314;2023-06-14T06:37:57;9.82;;;5.72;;
29934;SDS011;19905;53.370;-6.314;2023-06-14T06:40:27;9.88;;;5.25;;
29934;SDS011;19905;53.370;-6.314;2023-06-14T06:42:58;13.05;;;5.90;;
29934;SDS011;19905;53.370;-6.314;2023-06-14T06:45:27;10.32;;;5.60;;
29934;SDS011;19905;53.370;-6.314;2023-06-14T06:47:57;9.85;;;5.25;;
29934;SDS011;19905;53.370;-6.314;2023-06-14T06:50:25;12.20;;;5.25;;
29934;SDS011;19905;53.370;-6.314;2023-06-14T06:52:55;18.88;;;5.47;;
29934;SDS011;19905;53.370;-6.314;2023-06-14T06:55:24;15.52;;;5.32;;
29934;SDS011;19905;53.370;-6.314;2023-06-14T06:57:54;13.73;;;5.20;;
29934;SDS011;19905;53.370;-6.314;2023-06-14T07:00:23;10.88;;;5.53;;
29934;SDS011;19905;53.370;-6.314;2023-06-14T07:02:54;9.57;;;5.10;;
29934;SDS011;19905;53.370;-6.314;2023-06-14T07:08:12;11.13;;;5.15;;
29934;SDS011;19905;53.370;-6.314;2023-06-14T07:10:40;18.13;;;5.63;;
29934;SDS011;19905;53.370;-6.314;2023-06-14T07:13:11;12.50;;;5.50;;
29934;SDS011;19905;53.370;-6.314;2023-06-14T07:15:40;12.90;;;5.28;;
29934;SDS011;19905;53.370;-6.314;2023-06-14T07:18:10;13.07;;;5.35;;
29934;SDS011;19905;53.370;-6.314;2023-06-14T07:20:44;11.77;;;5.15;;
29934;SDS011;19905;53.370;-6.314;2023-06-14T07:23:14;10.23;;;5.22;;
29934;SDS011;19905;53.370;-6.314;2023-06-14T07:25:45;10.77;;;5.53;;
29934;SDS011;19905;53.370;-6.314;2023-06-14T07:28:15;15.40;;;5.10;;
29934;SDS011;19905;53.370;-6.314;2023-06-14T07:30:44;9.45;;;5.13;;
29934;SDS011;19905;53.370;-6.314;2023-06-14T07:33:14;9.00;;;4.70;;
29934;SDS011;19905;53.370;-6.314;2023-06-14T07:35:43;12.50;;;5.00;;
29934;SDS011;19905;53.370;-6.314;2023-06-14T07:38:12;9.43;;;4.60;;
29934;SDS011;19905;53.370;-6.314;2023-06-14T07:40:41;10.70;;;4.70;;
29934;SDS011;19905;53.370;-6.314;2023-06-14T07:43:09;8.65;;;4.70;;
29934;SDS011;19905;53.370;-6.314;2023-06-14T07:45:39;11.48;;;4.68;;
29934;SDS011;19905;53.370;-6.314;2023-06-14T07:48:28;9.18;;;4.75;;
29934;SDS011;19905;53.370;-6.314;2023-06-14T07:50:58;14.52;;;4.93;;
29934;SDS011;19905;53.370;-6.314;2023-06-14T07:53:28;11.13;;;5.13;;
29934;SDS011;19905;53.370;-6.314;2023-06-14T07:55:57;14.95;;;4.90;;
29934;SDS011;19905;53.370;-6.314;2023-06-14T07:58:27;8.30;;;4.72;;
29934;SDS011;19905;53.370;-6.314;2023-06-14T08:00:57;9.30;;;5.00;;
29934;SDS011;19905;53.370;-6.314;2023-06-14T08:03:27;10.95;;;4.88;;
29934;SDS011;19905;53.370;-6.314;2023-06-14T08:05:57;9.88;;;5.00;;
29934;SDS011;19905;53.370;-6.314;2023-06-14T08:08:25;15.23;;;4.82;;
29934;SDS011;19905;53.370;-6.314;2023-06-14T08:10:54;10.75;;;4.80;;
29934;SDS011;19905;53.370;-6.314;2023-06-14T08:13:24;11.75;;;4.90;;
29934;SDS011;19905;53.370;-6.314;2023-06-14T08:15:52;7.68;;;4.65;;
29934;SDS011;19905;53.370;-6.314;2023-06-14T08:18:23;11.20;;;4.88;;
29934;SDS011;19905;53.370;-6.314;2023-06-14T08:20:52;7.53;;;4.40;;
29934;SDS011;19905;53.370;-6.314;2023-06-14T08:23:22;8.02;;;4.78;;
29934;SDS011;19905;53.370;-6.314;2023-06-14T08:25:51;12.75;;;5.00;;
29934;SDS011;19905;53.370;-6.314;2023-06-14T08:28:22;10.45;;;5.10;;
29934;SDS011;19905;53.370;-6.314;2023-06-14T08:30:52;8.43;;;4.68;;
29934;SDS011;19905;53.370;-6.314;2023-06-14T08:33:22;8.40;;;4.60;;
29934;SDS011;19905;53.370;-6.314;2023-06-14T08:35:51;9.90;;;4.35;;
29934;SDS011;19905;53.370;-6.314;2023-06-14T08:38:20;10.02;;;4.60;;
29934;SDS011;19905;53.370;-6.314;2023-06-14T08:40:50;10.95;;;4.63;;
29934;SDS011;19905;53.370;-6.314;2023-06-14T08:43:20;7.82;;;4.10;;
29934;SDS011;19905;53.370;-6.314;2023-06-14T08:45:49;7.40;;;3.92;;
29934;SDS011;19905;53.370;-6.314;2023-06-14T08:48:25;9.55;;;4.00;;
29934;SDS011;19905;53.370;-6.314;2023-06-14T08:50:59;10.90;;;4.07;;
29934;SDS011;19905;53.370;-6.314;2023-06-14T08:53:31;9.73;;;3.72;;
29934;SDS011;19905;53.370;-6.314;2023-06-14T08:56:04;7.03;;;3.85;;
29934;SDS011;19905;53.370;-6.314;2023-06-14T08:58:34;9.30;;;3.92;;
29934;SDS011;19905;53.370;-6.314;2023-06-14T09:01:10;8.43;;;3.85;;
29934;SDS011;19905;53.370;-6.314;2023-06-14T09:03:42;5.18;;;3.25;;
29934;SDS011;19905;53.370;-6.314;2023-06-14T09:06:12;7.10;;;3.55;;
29934;SDS011;19905;53.370;-6.314;2023-06-14T09:08:42;6.28;;;3.05;;
29934;SDS011;19905;53.370;-6.314;2023-06-14T09:11:12;4.95;;;2.85;;
29934;SDS011;19905;53.370;-6.314;2023-06-14T09:13:42;6.25;;;3.30;;
29934;SDS011;19905;53.370;-6.314;2023-06-14T09:16:11;6.57;;;3.10;;
29934;SDS011;19905;53.370;-6.314;2023-06-14T09:18:41;8.07;;;3.47;;
29934;SDS011;19905;53.370;-6.314;2023-06-14T09:21:16;6.97;;;3.50;;
29934;SDS011;19905;53.370;-6.314;2023-06-14T09:23:48;8.30;;;3.20;;
29934;SDS011;19905;53.370;-6.314;2023-06-14T09:26:18;11.60;;;3.30;;
29934;SDS011;19905;53.370;-6.314;2023-06-14T09:28:47;7.63;;;2.92;;
29934;SDS011;19905;53.370;-6.314;2023-06-14T09:31:18;9.80;;;3.47;;
29934;SDS011;19905;53.370;-6.314;2023-06-14T09:33:51;8.30;;;3.33;;
29934;SDS011;19905;53.370;-6.314;2023-06-14T09:36:22;7.72;;;3.20;;
29934;SDS011;19905;53.370;-6.314;2023-06-14T09:38:52;7.70;;;3.30;;
29934;SDS011;19905;53.370;-6.314;2023-06-14T09:41:27;9.85;;;3.45;;
29934;SDS011;19905;53.370;-6.314;2023-06-14T09:44:01;8.57;;;3.53;;
29934;SDS011;19905;53.370;-6.314;2023-06-14T09:46:37;12.05;;;3.20;;
29934;SDS011;19905;53.370;-6.314;2023-06-14T09:49:08;7.20;;;3.20;;
29934;SDS011;19905;53.370;-6.314;2023-06-14T09:51:41;9.45;;;3.08;;
29934;SDS011;19905;53.370;-6.314;2023-06-14T09:54:13;8.40;;;3.50;;
29934;SDS011;19905;53.370;-6.314;2023-06-14T09:56:45;8.55;;;3.40;;
29934;SDS011;19905;53.370;-6.314;2023-06-14T09:59:19;7.80;;;3.30;;
29934;SDS011;19905;53.370;-6.314;2023-06-14T10:01:53;9.43;;;3.13;;
29934;SDS011;19905;53.370;-6.314;2023-06-14T10:04:28;8.95;;;3.40;;
29934;SDS011;19905;53.370;-6.314;2023-06-14T10:06:58;7.20;;;3.20;;
29934;SDS011;19905;53.370;-6.314;2023-06-14T10:09:29;7.72;;;3.22;;
29934;SDS011;19905;53.370;-6.314;2023-06-14T10:11:59;8.70;;;3.22;;
29934;SDS011;19905;53.370;-6.314;2023-06-14T10:14:28;8.23;;;3.42;;
29934;SDS011;19905;53.370;-6.314;2023-06-14T10:17:00;9.15;;;3.45;;
29934;SDS011;19905;53.370;-6.314;2023-06-14T10:19:36;7.75;;;3.50;;
29934;SDS011;19905;53.370;-6.314;2023-06-14T10:22:12;6.93;;;3.17;;
29934;SDS011;19905;53.370;-6.314;2023-06-14T10:24:46;10.88;;;3.45;;
29934;SDS011;19905;53.370;-6.314;2023-06-14T10:27:17;9.70;;;3.85;;
29934;SDS011;19905;53.370;-6.314;2023-06-14T10:30:01;10.30;;;3.80;;
29934;SDS011;19905;53.370;-6.314;2023-06-14T10:32:32;8.05;;;3.42;;
29934;SDS011;19905;53.370;-6.314;2023-06-14T10:35:05;10.43;;;3.67;;
29934;SDS011;19905;53.370;-6.314;2023-06-14T10:37:35;9.82;;;3.35;;
29934;SDS011;19905;53.370;-6.314;2023-06-14T10:40:05;14.43;;;3.90;;
29934;SDS011;19905;53.370;-6.314;2023-06-14T10:42:37;10.60;;;3.20;;
29934;SDS011;19905;53.370;-6.314;2023-06-14T10:45:25;10.50;;;3.58;;
29934;SDS011;19905;53.370;-6.314;2023-06-14T10:47:57;10.07;;;3.33;;
29934;SDS011;19905;53.370;-6.314;2023-06-14T10:50:28;8.20;;;3.30;;
29934;SDS011;19905;53.370;-6.314;2023-06-14T10:52:57;12.63;;;3.60;;
29934;SDS011;19905;53.370;-6.314;2023-06-14T10:55:25;10.50;;;3.42;;
29934;SDS011;19905;53.370;-6.314;2023-06-14T10:58:05;13.43;;;3.65;;
29934;SDS011;19905;53.370;-6.314;2023-06-14T11:00:33;13.05;;;3.25;;
29934;SDS011;19905;53.370;-6.314;2023-06-14T11:06:22;12.15;;;3.70;;
29934;SDS011;19905;53.370;-6.314;2023-06-14T11:09:14;10.38;;;4.00;;
29934;SDS011;19905;53.370;-6.314;2023-06-14T11:11:57;12.18;;;3.97;;
29934;SDS011;19905;53.370;-6.314;2023-06-14T11:14:29;10.85;;;4.00;;
29934;SDS011;19905;53.370;-6.314;2023-06-14T11:16:58;10.60;;;4.32;;
29934;SDS011;19905;53.370;-6.314;2023-06-14T11:19:28;15.77;;;4.80;;
29934;SDS011;19905;53.370;-6.314;2023-06-14T11:21:58;11.82;;;4.30;;
29934;SDS011;19905;53.370;-6.314;2023-06-14T11:24:27;14.15;;;4.80;;
29934;SDS011;19905;53.370;-6.314;2023-06-14T11:26:56;13.73;;;4.93;;
29934;SDS011;19905;53.370;-6.314;2023-06-14T11:29:25;13.02;;;4.57;;
29934;SDS011;19905;53.370;-6.314;2023-06-14T11:31:55;9.77;;;5.03;;
29934;SDS011;19905;53.370;-6.314;2023-06-14T11:34:24;15.32;;;5.03;;
29934;SDS011;19905;53.370;-6.314;2023-06-14T11:36:53;15.50;;;5.13;;
29934;SDS011;19905;53.370;-6.314;2023-06-14T11:39:25;14.00;;;5.47;;
29934;SDS011;19905;53.370;-6.314;2023-06-14T11:41:55;10.82;;;5.10;;
29934;SDS011;19905;53.370;-6.314;2023-06-14T11:44:28;11.02;;;4.75;;
29934;SDS011;19905;53.370;-6.314;2023-06-14T11:46:57;15.05;;;5.20;;
29934;SDS011;19905;53.370;-6.314;2023-06-14T11:49:25;12.63;;;4.88;;
29934;SDS011;19905;53.370;-6.314;2023-06-14T11:51:54;11.82;;;5.00;;
29934;SDS011;19905;53.370;-6.314;2023-06-14T11:54:25;11.63;;;4.65;;
29934;SDS011;19905;53.370;-6.314;2023-06-14T11:56:53;14.43;;;5.03;;
29934;SDS011;19905;53.370;-6.314;2023-06-14T11:59:22;11.65;;;4.93;;
29934;SDS011;19905;53.370;-6.314;2023-06-14T12:01:52;14.88;;;5.22;;
29934;SDS011;19905;53.370;-6.314;2023-06-14T12:04:26;10.48;;;4.30;;
29934;SDS011;19905;53.370;-6.314;2023-06-14T12:06:55;13.95;;;4.43;;
29934;SDS011;19905;53.370;-6.314;2023-06-14T12:09:25;12.75;;;4.57;;
29934;SDS011;19905;53.370;-6.314;2023-06-14T12:11:59;13.70;;;4.47;;
29934;SDS011;19905;53.370;-6.314;2023-06-14T12:14:29;15.30;;;4.35;;
29934;SDS011;19905;53.370;-6.314;2023-06-14T12:17:03;9.90;;;3.75;;
29934;SDS011;19905;53.370;-6.314;2023-06-14T12:19:41;11.63;;;4.10;;
29934;SDS011;19905;53.370;-6.314;2023-06-14T12:22:12;10.88;;;3.97;;
29934;SDS011;19905;53.370;-6.314;2023-06-14T12:24:43;10.48;;;4.00;;
29934;SDS011;19905;53.370;-6.314;2023-06-14T12:27:12;10.70;;;4.38;;
29934;SDS011;19905;53.370;-6.314;2023-06-14T12:29:43;9.50;;;3.67;;
29934;SDS011;19905;53.370;-6.314;2023-06-14T12:32:12;13.90;;;4.20;;
29934;SDS011;19905;53.370;-6.314;2023-06-14T12:34:41;10.35;;;3.88;;
29934;SDS011;19905;53.370;-6.314;2023-06-14T12:37:09;12.10;;;3.72;;
29934;SDS011;19905;53.370;-6.314;2023-06-14T12:42:13;13.82;;;3.67;;
29934;SDS011;19905;53.370;-6.314;2023-06-14T12:44:41;7.80;;;3.50;;
29934;SDS011;19905;53.370;-6.314;2023-06-14T12:47:10;7.70;;;3.60;;
29934;SDS011;19905;53.370;-6.314;2023-06-14T12:49:41;10.43;;;3.55;;
29934;SDS011;19905;53.370;-6.314;2023-06-14T12:52:11;13.48;;;4.38;;
29934;SDS011;19905;53.370;-6.314;2023-06-14T12:54:41;11.73;;;3.92;;
29934;SDS011;19905;53.370;-6.314;2023-06-14T12:57:11;11.30;;;3.65;;
29934;SDS011;19905;53.370;-6.314;2023-06-14T12:59:40;9.60;;;3.78;;
29934;SDS011;19905;53.370;-6.314;2023-06-14T13:02:12;7.03;;;3.55;;
29934;SDS011;19905;53.370;-6.314;2023-06-14T13:04:42;10.80;;;4.10;;
29934;SDS011;19905;53.370;-6.314;2023-06-14T13:07:11;10.50;;;4.25;;
29934;SDS011;19905;53.370;-6.314;2023-06-14T13:09:43;15.43;;;4.18;;
29934;SDS011;19905;53.370;-6.314;2023-06-14T13:12:13;8.57;;;4.15;;
29934;SDS011;19905;53.370;-6.314;2023-06-14T13:14:42;11.90;;;3.70;;
29934;SDS011;19905;53.370;-6.314;2023-06-14T13:17:11;7.28;;;4.03;;
29934;SDS011;19905;53.370;-6.314;2023-06-14T13:19:39;9.52;;;4.20;;
29934;SDS011;19905;53.370;-6.314;2023-06-14T13:22:10;9.05;;;3.72;;
29934;SDS011;19905;53.370;-6.314;2023-06-14T13:24:38;9.05;;;4.03;;
29934;SDS011;19905;53.370;-6.314;2023-06-14T13:27:07;11.43;;;3.78;;
29934;SDS011;19905;53.370;-6.314;2023-06-14T13:29:37;11.63;;;3.83;;
29934;SDS011;19905;53.370;-6.314;2023-06-14T13:32:06;14.80;;;3.80;;
29934;SDS011;19905;53.370;-6.314;2023-06-14T13:34:35;10.48;;;3.53;;
29934;SDS011;19905;53.370;-6.314;2023-06-14T13:37:04;8.45;;;3.55;;
29934;SDS011;19905;53.370;-6.314;2023-06-14T13:39:34;9.85;;;3.60;;
29934;SDS011;19905;53.370;-6.314;2023-06-14T13:42:04;7.68;;;3.55;;
29934;SDS011;19905;53.370;-6.314;2023-06-14T13:44:34;11.98;;;3.40;;
29934;SDS011;19905;53.370;-6.314;2023-06-14T13:47:04;13.90;;;3.50;;
29934;SDS011;19905;53.370;-6.314;2023-06-14T13:49:34;12.65;;;3.67;;
29934;SDS011;19905;53.370;-6.314;2023-06-14T13:52:03;7.97;;;3.35;;
29934;SDS011;19905;53.370;-6.314;2023-06-14T13:54:33;9.07;;;3.70;;
29934;SDS011;19905;53.370;-6.314;2023-06-14T13:57:02;11.18;;;3.63;;
29934;SDS011;19905;53.370;-6.314;2023-06-14T13:59:32;10.75;;;3.80;;
29934;SDS011;19905;53.370;-6.314;2023-06-14T14:02:01;8.77;;;3.72;;
29934;SDS011;19905;53.370;-6.314;2023-06-14T14:04:32;15.98;;;4.35;;
29934;SDS011;19905;53.370;-6.314;2023-06-14T14:07:01;11.57;;;3.70;;
29934;SDS011;19905;53.370;-6.314;2023-06-14T14:09:30;11.30;;;4.00;;
29934;SDS011;19905;53.370;-6.314;2023-06-14T14:11:59;8.82;;;4.00;;
29934;SDS011;19905;53.370;-6.314;2023-06-14T14:14:29;8.95;;;3.72;;
29934;SDS011;19905;53.370;-6.314;2023-06-14T14:17:00;8.15;;;3.63;;
29934;SDS011;19905;53.370;-6.314;2023-06-14T14:19:29;8.23;;;3.60;;
29934;SDS011;19905;53.370;-6.314;2023-06-14T14:21:59;13.52;;;3.70;;
29934;SDS011;19905;53.370;-6.314;2023-06-14T14:24:29;10.45;;;3.60;;
29934;SDS011;19905;53.370;-6.314;2023-06-14T14:27:01;12.05;;;4.07;;
29934;SDS011;19905;53.370;-6.314;2023-06-14T14:29:30;14.02;;;3.63;;
29934;SDS011;19905;53.370;-6.314;2023-06-14T14:31:59;9.00;;;3.80;;
29934;SDS011;19905;53.370;-6.314;2023-06-14T14:34:28;14.50;;;4.00;;
29934;SDS011;19905;53.370;-6.314;2023-06-14T14:37:00;9.85;;;3.78;;
29934;SDS011;19905;53.370;-6.314;2023-06-14T14:39:28;10.68;;;3.75;;
29934;SDS011;19905;53.370;-6.314;2023-06-14T14:41:57;11.93;;;3.50;;
29934;SDS011;19905;53.370;-6.314;2023-06-14T14:44:26;9.95;;;3.95;;
29934;SDS011;19905;53.370;-6.314;2023-06-14T14:46:54;12.27;;;3.50;;
29934;SDS011;19905;53.370;-6.314;2023-06-14T14:49:23;10.50;;;3.65;;